Time;durP1;ratioP1;P1;durP2;ratioP2;P2;SDS_P1;SDS_P2;PMS_P1;PMS_P2;Temp;Humidity;BMP_temperature;BMP_pressure;BME280_temperature;BME280_humidity;BME280_pressure;Samples;Min_cycle;Max_cycle;Signal;HPM_P1;HPM_P2
2023/06/26 00:02:13;;;;;;;7.07;6.00;;;24.90;61.10;;;;;;5013061;28;20203;-72
2023/06/26 00:04:40;;;;;;;6.10;5.50;;;24.90;61.40;;;;;;5012573;28;20302;-73
2023/06/26 00:07:14;;;;;;;5.70;5.20;;;24.80;61.10;;;;;;5010929;28;20217;-72
2023/06/26 00:09:41;;;;;;;6.37;5.50;;;24.80;61.80;;;;;;5001195;28;20196;-72
2023/06/26 00:12:11;;;;;;;6.17;5.57;;;24.80;61.80;;;;;;4992835;28;20207;-71
2023/06/26 00:14:38;;;;;;;5.70;5.17;;;24.70;62.10;;;;;;4992269;28;20311;-71
2023/06/26 00:17:05;;;;;;;5.97;5.23;;;24.70;61.90;;;;;;4993121;28;20203;-72
2023/06/26 00:19:35;;;;;;;6.37;5.20;;;24.60;61.90;;;;;;5010287;28;20695;-71
2023/06/26 00:22:34;;;;;;;5.73;5.23;;;24.60;62.50;;;;;;5012040;28;20227;-72
2023/06/26 00:25:01;;;;;;;5.87;5.33;;;24.60;63.50;;;;;;5011936;28;20211;-72
2023/06/26 00:27:27;;;;;;;6.63;5.60;;;24.50;62.50;;;;;;5010753;28;20211;-72
2023/06/26 00:29:54;;;;;;;6.10;5.50;;;24.50;62.70;;;;;;5011192;28;20824;-72
2023/06/26 00:32:22;;;;;;;6.53;5.90;;;24.50;62.70;;;;;;5011530;28;20219;-72
2023/06/26 00:34:49;;;;;;;7.03;6.00;;;24.50;62.70;;;;;;5012012;28;20210;-71
2023/06/26 00:37:16;;;;;;;6.93;6.23;;;24.40;62.40;;;;;;5011994;28;20206;-71
2023/06/26 00:39:47;;;;;;;6.10;5.50;;;24.40;62.60;;;;;;5008378;28;20203;-71
2023/06/26 00:42:14;;;;;;;7.13;6.20;;;24.30;62.60;;;;;;5000813;28;20199;-71
2023/06/26 00:44:40;;;;;;;6.93;6.20;;;24.30;62.50;;;;;;5011779;28;20207;-71
2023/06/26 00:47:12;;;;;;;6.77;6.07;;;24.20;62.60;;;;;;5009887;28;20221;-71
2023/06/26 00:49:39;;;;;;;6.13;5.53;;;24.20;62.60;;;;;;5011779;28;20203;-71
2023/06/26 00:52:09;;;;;;;7.47;6.10;;;24.20;62.60;;;;;;5010199;28;20199;-71
2023/06/26 00:54:36;;;;;;;6.50;5.90;;;24.10;62.50;;;;;;4999900;28;20270;-72
2023/06/26 00:57:05;;;;;;;6.43;5.83;;;24.10;62.60;;;;;;4992070;28;20206;-72
2023/06/26 00:59:35;;;;;;;6.10;5.50;;;24.10;62.90;;;;;;4991288;28;20318;-71
2023/06/26 01:02:02;;;;;;;7.20;6.50;;;24.00;62.80;;;;;;4992132;28;20234;-72
2023/06/26 01:04:32;;;;;;;7.00;6.30;;;24.00;62.90;;;;;;5004858;28;20202;-72
2023/06/26 01:07:00;;;;;;;6.33;5.73;;;23.90;63.00;;;;;;5011064;28;20675;-71
2023/06/26 01:09:27;;;;;;;6.73;6.03;;;23.90;63.30;;;;;;5000001;28;20212;-71
2023/06/26 01:11:58;;;;;;;7.07;6.37;;;23.80;63.10;;;;;;4992036;28;20208;-72
2023/06/26 01:14:27;;;;;;;6.83;6.23;;;23.80;63.00;;;;;;4988577;28;20258;-71
2023/06/26 01:16:57;;;;;;;8.20;7.13;;;23.80;63.00;;;;;;4991656;28;20233;-71
2023/06/26 01:19:25;;;;;;;8.13;5.93;;;23.70;63.00;;;;;;4991345;28;20228;-72
2023/06/26 01:22:00;;;;;;;7.13;6.37;;;23.70;63.20;;;;;;4991211;28;20227;-72
2023/06/26 01:24:37;;;;;;;7.43;6.20;;;23.60;63.60;;;;;;4992254;28;20195;-72
2023/06/26 01:27:11;;;;;;;6.00;5.40;;;23.50;63.80;;;;;;4990386;28;20195;-70
2023/06/26 01:29:38;;;;;;;9.10;6.87;;;23.40;63.70;;;;;;4991331;28;20300;-71
2023/06/26 01:32:12;;;;;;;6.80;6.20;;;23.40;63.80;;;;;;4991682;28;20204;-72
2023/06/26 01:34:40;;;;;;;6.73;6.03;;;23.40;63.80;;;;;;5010157;28;20666;-70
2023/06/26 01:37:12;;;;;;;6.97;6.27;;;23.40;63.60;;;;;;5010956;28;20219;-71
2023/06/26 01:39:39;;;;;;;8.93;6.60;;;23.40;63.70;;;;;;4995825;28;20196;-73
2023/06/26 01:42:11;;;;;;;7.27;6.57;;;23.30;63.70;;;;;;5000252;28;20203;-69
2023/06/26 01:44:46;;;;;;;7.00;6.27;;;23.30;63.90;;;;;;4999968;28;20211;-71
2023/06/26 01:47:17;;;;;;;7.23;6.13;;;23.30;63.80;;;;;;5010955;28;20199;-70
2023/06/26 01:49:53;;;;;;;6.97;6.27;;;23.30;63.60;;;;;;5010958;28;20202;-72
2023/06/26 01:52:29;;;;;;;6.80;6.10;;;23.20;63.60;;;;;;5011136;28;20230;-70
2023/06/26 01:55:06;;;;;;;6.50;5.90;;;23.20;63.80;;;;;;4993343;28;20220;-71
2023/06/26 01:57:37;;;;;;;7.30;6.20;;;23.10;63.90;;;;;;4998248;28;20198;-71
2023/06/26 02:00:05;;;;;;;7.30;6.37;;;23.20;64.00;;;;;;5010469;28;20211;-71
2023/06/26 02:02:35;;;;;;;7.53;6.50;;;23.10;63.90;;;;;;4998590;28;20220;-71
2023/06/26 02:05:02;;;;;;;7.87;6.70;;;23.00;64.10;;;;;;4990913;28;20235;-71
2023/06/26 02:07:29;;;;;;;7.10;6.43;;;23.00;64.30;;;;;;5010410;28;20295;-71
2023/06/26 02:09:59;;;;;;;7.37;6.67;;;22.90;64.40;;;;;;5029238;28;20218;-71
2023/06/26 02:12:26;;;;;;;7.47;6.20;;;22.90;64.40;;;;;;5029847;28;20229;-70
2023/06/26 02:14:54;;;;;;;7.60;6.63;;;22.90;64.40;;;;;;5011475;28;20222;-70
2023/06/26 02:17:23;;;;;;;7.17;6.47;;;22.80;64.40;;;;;;5009215;28;20703;-71
2023/06/26 02:19:50;;;;;;;8.10;6.67;;;22.80;64.80;;;;;;4995009;28;20819;-71
2023/06/26 02:22:17;;;;;;;6.60;5.83;;;22.80;64.80;;;;;;5001337;28;20679;-71
2023/06/26 02:24:47;;;;;;;7.57;6.07;;;22.80;65.10;;;;;;5006508;28;20211;-71
2023/06/26 02:27:14;;;;;;;8.10;6.40;;;22.80;65.10;;;;;;5008721;28;20250;-71
2023/06/26 02:29:42;;;;;;;7.53;6.67;;;22.70;65.00;;;;;;4996806;28;20552;-71
2023/06/26 02:32:12;;;;;;;6.60;5.97;;;22.70;65.00;;;;;;5003486;28;20260;-71
2023/06/26 02:34:38;;;;;;;6.50;5.90;;;22.70;65.80;;;;;;4999713;28;20222;-71
2023/06/26 02:37:07;;;;;;;6.87;6.20;;;22.70;65.80;;;;;;5001828;28;20922;-71
2023/06/26 02:39:35;;;;;;;7.67;6.17;;;22.70;65.00;;;;;;4997012;28;20262;-70
2023/06/26 02:42:02;;;;;;;7.03;6.33;;;22.70;65.00;;;;;;4998776;28;20243;-72
2023/06/26 02:44:28;;;;;;;6.60;5.97;;;22.70;65.00;;;;;;5004179;28;20204;-71
2023/06/26 02:47:01;;;;;;;7.07;6.37;;;22.70;65.00;;;;;;5003325;28;20207;-70
2023/06/26 02:49:29;;;;;;;7.13;6.20;;;22.60;65.30;;;;;;5000976;28;20192;-70
2023/06/26 02:51:58;;;;;;;8.23;7.43;;;22.70;65.10;;;;;;5001915;28;20571;-71
2023/06/26 02:54:25;;;;;;;7.73;7.03;;;22.60;65.30;;;;;;5005611;28;20575;-70
2023/06/26 02:56:52;;;;;;;7.13;6.43;;;22.60;65.40;;;;;;5001435;28;20204;-70
2023/06/26 02:59:25;;;;;;;6.93;6.33;;;22.60;65.00;;;;;;4995632;28;20291;-72
2023/06/26 03:01:52;;;;;;;7.53;6.47;;;22.60;65.30;;;;;;5014518;28;20285;-71
2023/06/26 03:04:24;;;;;;;7.03;6.33;;;22.60;65.40;;;;;;4999008;28;20210;-71
2023/06/26 03:06:53;;;;;;;7.03;6.33;;;22.60;65.50;;;;;;4995427;28;20192;-72
2023/06/26 03:09:23;;;;;;;9.50;6.60;;;22.60;65.60;;;;;;4995507;28;20211;-70
2023/06/26 03:11:50;;;;;;;7.03;6.33;;;22.50;65.60;;;;;;4995328;28;20224;-70
2023/06/26 03:14:17;;;;;;;6.87;6.17;;;22.50;65.60;;;;;;4996098;28;20937;-71
2023/06/26 03:16:47;;;;;;;7.13;6.23;;;22.50;65.60;;;;;;4982794;28;20231;-70
2023/06/26 03:19:14;;;;;;;6.50;5.73;;;22.50;65.70;;;;;;4995180;28;20226;-70
2023/06/26 03:21:41;;;;;;;8.80;6.83;;;22.50;65.90;;;;;;5002543;28;20227;-71
2023/06/26 03:24:15;;;;;;;6.23;5.63;;;22.50;66.00;;;;;;5012417;28;20210;-71
2023/06/26 03:26:41;;;;;;;6.97;5.90;;;22.50;66.50;;;;;;5014510;28;20199;-70
2023/06/26 03:29:11;;;;;;;6.53;5.83;;;22.40;66.30;;;;;;5008224;28;20217;-71
2023/06/26 03:31:38;;;;;;;7.73;6.93;;;22.40;67.30;;;;;;5013686;28;20201;-70
2023/06/26 03:34:05;;;;;;;8.67;6.70;;;22.30;66.30;;;;;;5013475;28;20321;-71
2023/06/26 03:36:37;;;;;;;7.27;6.50;;;22.30;66.40;;;;;;5014125;28;20925;-70
2023/06/26 03:39:04;;;;;;;7.97;6.43;;;22.30;66.70;;;;;;5014528;28;20297;-71
2023/06/26 03:41:35;;;;;;;6.80;6.10;;;22.30;66.60;;;;;;5014752;28;20301;-71
2023/06/26 03:44:03;;;;;;;7.50;6.60;;;22.30;66.70;;;;;;5004793;28;20204;-71
2023/06/26 03:46:30;;;;;;;7.40;6.63;;;22.30;66.60;;;;;;4998396;28;20266;-71
2023/06/26 03:49:00;;;;;;;7.33;6.63;;;22.20;66.60;;;;;;5006741;28;20219;-71
2023/06/26 03:51:26;;;;;;;6.83;6.13;;;22.20;66.90;;;;;;5011938;28;20250;-71
2023/06/26 03:53:53;;;;;;;7.03;6.13;;;22.20;67.20;;;;;;5013314;28;20225;-71
2023/06/26 03:56:23;;;;;;;9.57;6.23;;;22.20;67.20;;;;;;5014092;28;20636;-71
2023/06/26 03:58:51;;;;;;;7.57;6.27;;;22.20;67.40;;;;;;5013894;28;20219;-71
2023/06/26 04:01:21;;;;;;;9.53;6.43;;;22.20;67.40;;;;;;5013469;28;20231;-71
2023/06/26 04:03:48;;;;;;;6.30;5.70;;;22.20;67.40;;;;;;5007432;28;20211;-71
2023/06/26 04:06:15;;;;;;;6.80;6.10;;;22.20;67.50;;;;;;4993981;28;20665;-71
2023/06/26 04:08:41;;;;;;;6.67;6.03;;;22.20;67.60;;;;;;4994259;28;20314;-71
2023/06/26 04:11:14;;;;;;;7.13;6.43;;;22.30;67.70;;;;;;4994497;28;20215;-71
2023/06/26 04:13:41;;;;;;;7.50;6.63;;;22.30;68.00;;;;;;4998381;28;20223;-71
2023/06/26 04:16:12;;;;;;;6.73;6.03;;;22.30;68.40;;;;;;5013461;28;20210;-71
2023/06/26 04:18:39;;;;;;;11.83;7.50;;;22.30;67.60;;;;;;5013580;28;20219;-70
2023/06/26 04:21:13;;;;;;;6.70;6.00;;;22.30;67.30;;;;;;5013184;28;20250;-71
2023/06/26 04:23:40;;;;;;;7.67;6.33;;;22.30;67.30;;;;;;5009273;28;20214;-70
2023/06/26 04:26:08;;;;;;;7.47;6.30;;;22.30;67.30;;;;;;5005318;28;20592;-71
2023/06/26 04:28:37;;;;;;;7.27;6.00;;;22.10;67.50;;;;;;4993794;28;20206;-70
2023/06/26 04:31:04;;;;;;;8.27;6.70;;;22.00;67.90;;;;;;5013232;28;20195;-71
2023/06/26 04:33:35;;;;;;;8.67;7.03;;;22.00;67.90;;;;;;5012572;28;20235;-70
2023/06/26 04:36:03;;;;;;;8.43;7.57;;;22.00;68.00;;;;;;5008255;28;20657;-71
2023/06/26 04:38:34;;;;;;;7.30;6.50;;;21.90;68.00;;;;;;4992279;28;20224;-71
2023/06/26 04:41:01;;;;;;;7.67;6.40;;;22.00;68.40;;;;;;4993535;28;20235;-70
2023/06/26 04:43:27;;;;;;;8.53;6.83;;;22.10;68.20;;;;;;4993192;28;20208;-71
2023/06/26 04:45:57;;;;;;;10.60;7.03;;;22.20;68.10;;;;;;5005231;28;20191;-71
2023/06/26 04:48:24;;;;;;;9.33;6.60;;;22.20;68.10;;;;;;5009460;28;20199;-71
2023/06/26 04:50:59;;;;;;;10.23;6.27;;;22.20;68.10;;;;;;5001476;28;20222;-71
2023/06/26 04:53:26;;;;;;;7.83;6.17;;;22.30;68.40;;;;;;4993923;28;20231;-71
2023/06/26 04:55:53;;;;;;;11.23;6.60;;;22.40;68.20;;;;;;5008754;28;20717;-71
2023/06/26 04:58:23;;;;;;;8.03;6.67;;;22.50;68.20;;;;;;5011932;28;20207;-71
2023/06/26 05:00:50;;;;;;;7.43;6.57;;;22.60;68.10;;;;;;5012041;28;20290;-70
2023/06/26 05:03:18;;;;;;;7.87;6.73;;;22.70;68.10;;;;;;5001965;28;20219;-70
2023/06/26 05:05:47;;;;;;;8.33;6.93;;;22.70;68.20;;;;;;4996691;28;20215;-72
2023/06/26 05:08:26;;;;;;;7.70;6.53;;;22.80;68.20;;;;;;5006040;28;20207;-72
2023/06/26 05:10:57;;;;;;;7.30;6.13;;;22.90;68.50;;;;;;4993006;28;20262;-72
2023/06/26 05:13:24;;;;;;;9.23;6.30;;;23.00;68.30;;;;;;5002994;28;20806;-71
2023/06/26 05:15:53;;;;;;;6.37;5.77;;;23.10;67.80;;;;;;5011004;28;20717;-70
2023/06/26 05:18:23;;;;;;;8.20;6.30;;;23.30;67.40;;;;;;5012376;28;20587;-72
2023/06/26 05:20:50;;;;;;;7.03;6.17;;;23.30;66.80;;;;;;5012483;28;20199;-72
2023/06/26 05:23:19;;;;;;;7.00;6.13;;;23.50;66.20;;;;;;5012272;28;20572;-72
2023/06/26 05:25:50;;;;;;;7.60;6.50;;;23.60;66.00;;;;;;4997660;28;20215;-70
2023/06/26 05:28:17;;;;;;;6.87;6.00;;;23.80;65.70;;;;;;5010692;28;20224;-72
2023/06/26 05:30:47;;;;;;;7.57;6.87;;;23.80;65.20;;;;;;5011468;28;20231;-71
2023/06/26 05:33:17;;;;;;;7.13;6.43;;;23.90;64.90;;;;;;4998565;28;20203;-72
2023/06/26 05:35:48;;;;;;;7.03;6.33;;;24.10;64.90;;;;;;4992211;28;20249;-70
2023/06/26 05:38:16;;;;;;;8.47;7.00;;;24.20;64.90;;;;;;4992528;28;20227;-71
2023/06/26 05:40:47;;;;;;;7.83;7.03;;;24.20;64.30;;;;;;5012041;28;20211;-71
2023/06/26 05:43:15;;;;;;;9.10;6.73;;;24.40;64.10;;;;;;5011582;28;20197;-71
2023/06/26 05:45:42;;;;;;;7.10;6.40;;;24.40;63.80;;;;;;5011808;28;20184;-72
2023/06/26 05:48:09;;;;;;;7.27;6.57;;;24.50;63.70;;;;;;5005627;28;21575;-72
2023/06/26 05:50:36;;;;;;;6.73;6.03;;;24.60;63.40;;;;;;5011732;28;20230;-71
2023/06/26 05:53:12;;;;;;;7.20;6.50;;;24.70;63.60;;;;;;4996234;28;20209;-71
2023/06/26 05:55:42;;;;;;;7.03;6.33;;;24.80;62.90;;;;;;4957930;28;20238;-71
2023/06/26 05:58:14;;;;;;;6.90;6.20;;;25.00;62.80;;;;;;4993585;28;20215;-71
2023/06/26 06:00:42;;;;;;;6.47;5.87;;;25.10;62.10;;;;;;4998247;28;20218;-71
2023/06/26 06:03:12;;;;;;;7.50;6.70;;;25.00;61.90;;;;;;4994404;28;20696;-71
2023/06/26 06:05:39;;;;;;;7.00;6.33;;;25.10;62.30;;;;;;4992146;28;20211;-71
2023/06/26 06:08:05;;;;;;;8.23;6.73;;;25.20;61.30;;;;;;4992004;28;20207;-71
2023/06/26 06:10:36;;;;;;;7.90;7.10;;;25.30;60.90;;;;;;4992011;28;20212;-72
2023/06/26 06:13:02;;;;;;;8.20;6.43;;;25.40;60.80;;;;;;5006517;28;20679;-71
2023/06/26 06:15:31;;;;;;;7.00;6.30;;;25.40;60.50;;;;;;5018098;28;20238;-71
2023/06/26 06:18:00;;;;;;;6.77;6.07;;;25.60;60.30;;;;;;5016748;28;20214;-71
2023/06/26 06:20:27;;;;;;;6.87;6.27;;;25.70;59.80;;;;;;5018282;28;20214;-71
2023/06/26 06:22:54;;;;;;;7.40;6.20;;;25.80;59.80;;;;;;5007155;28;20598;-71
2023/06/26 06:25:23;;;;;;;7.93;6.57;;;25.80;59.20;;;;;;4997971;28;20203;-71
2023/06/26 06:27:50;;;;;;;6.77;6.13;;;25.90;58.90;;;;;;4998286;28;20211;-71
2023/06/26 06:30:17;;;;;;;6.90;6.20;;;26.00;59.10;;;;;;4980675;28;20266;-70
2023/06/26 06:32:52;;;;;;;7.40;6.17;;;26.10;58.80;;;;;;5008064;28;20202;-71
2023/06/26 06:35:25;;;;;;;7.97;6.40;;;26.20;58.60;;;;;;5017944;28;20238;-71
2023/06/26 06:37:52;;;;;;;6.73;6.03;;;26.20;58.10;;;;;;5018096;28;20207;-72
2023/06/26 06:40:22;;;;;;;7.80;5.90;;;26.20;58.20;;;;;;5017696;28;20257;-71
2023/06/26 06:42:49;;;;;;;7.50;6.43;;;26.40;58.20;;;;;;5016859;28;20258;-71
2023/06/26 06:45:16;;;;;;;6.53;5.77;;;26.50;57.80;;;;;;4999604;28;20217;-70
2023/06/26 06:47:46;;;;;;;7.23;5.97;;;26.60;57.80;;;;;;4998074;28;20227;-72
2023/06/26 06:50:15;;;;;;;8.00;5.70;;;26.80;57.80;;;;;;4998297;28;20214;-71
2023/06/26 06:52:46;;;;;;;6.90;6.20;;;26.80;57.90;;;;;;4999325;28;20251;-71
2023/06/26 06:55:12;;;;;;;7.67;5.93;;;27.00;57.70;;;;;;4998043;28;20567;-71
2023/06/26 06:57:40;;;;;;;6.50;5.80;;;27.10;56.80;;;;;;4997994;28;20676;-70
2023/06/26 07:00:11;;;;;;;7.20;6.43;;;27.20;56.80;;;;;;4998179;28;20239;-72
2023/06/26 07:02:38;;;;;;;7.67;6.20;;;27.30;56.20;;;;;;5003684;28;20217;-71
2023/06/26 07:05:06;;;;;;;7.80;6.50;;;27.40;56.00;;;;;;5018039;28;20204;-71
2023/06/26 07:07:37;;;;;;;6.97;5.60;;;27.50;55.90;;;;;;5016574;28;20237;-73
2023/06/26 07:10:06;;;;;;;7.23;5.60;;;27.60;55.90;;;;;;5017431;28;20220;-71
2023/06/26 07:12:36;;;;;;;6.27;5.67;;;27.70;55.80;;;;;;5013844;28;20640;-71
2023/06/26 07:15:04;;;;;;;5.87;5.30;;;27.80;54.90;;;;;;5006404;28;20216;-72
2023/06/26 07:17:35;;;;;;;6.80;5.47;;;27.90;54.20;;;;;;4998169;28;20249;-73
2023/06/26 07:20:05;;;;;;;7.70;5.67;;;28.00;54.40;;;;;;4997975;28;20239;-73
2023/06/26 07:22:40;;;;;;;6.57;5.87;;;28.00;53.50;;;;;;4998977;28;20230;-71
2023/06/26 07:25:09;;;;;;;5.93;5.33;;;28.10;53.30;;;;;;4997496;28;20236;-72
2023/06/26 07:27:35;;;;;;;6.00;5.40;;;28.20;53.50;;;;;;4994644;28;20199;-72
2023/06/26 07:30:02;;;;;;;6.40;5.80;;;28.30;53.40;;;;;;4994826;28;20223;-70
2023/06/26 07:32:29;;;;;;;6.27;5.67;;;28.50;53.50;;;;;;4995330;28;20227;-72
2023/06/26 07:34:56;;;;;;;5.40;4.90;;;28.60;52.00;;;;;;5005027;28;20230;-71
2023/06/26 07:37:23;;;;;;;6.10;5.50;;;28.60;51.80;;;;;;4998208;28;20707;-71
2023/06/26 07:39:57;;;;;;;5.73;5.23;;;28.70;52.30;;;;;;4994622;28;20214;-71
2023/06/26 07:42:24;;;;;;;7.33;5.50;;;28.90;52.00;;;;;;4994700;28;20193;-72
2023/06/26 07:44:55;;;;;;;6.03;4.87;;;28.90;51.70;;;;;;4998760;28;20230;-72
2023/06/26 07:47:23;;;;;;;7.67;5.37;;;29.00;51.30;;;;;;4994880;28;20262;-72
2023/06/26 07:49:50;;;;;;;7.43;5.10;;;29.10;50.80;;;;;;4994189;28;20298;-71
2023/06/26 07:52:17;;;;;;;6.97;5.07;;;29.20;51.40;;;;;;4994262;28;20208;-71
2023/06/26 07:54:44;;;;;;;6.00;5.40;;;29.30;50.60;;;;;;4999103;28;20223;-71
2023/06/26 07:57:15;;;;;;;6.47;5.00;;;29.40;50.70;;;;;;4994547;28;20231;-71
2023/06/26 07:59:42;;;;;;;5.90;5.30;;;29.40;50.20;;;;;;4994447;28;20270;-71
2023/06/26 08:02:10;;;;;;;5.70;5.20;;;29.50;49.90;;;;;;4994112;28;20671;-71
2023/06/26 08:04:39;;;;;;;7.00;5.50;;;29.60;49.40;;;;;;4995274;28;20263;-73
2023/06/26 08:07:07;;;;;;;5.53;5.03;;;29.50;49.00;;;;;;5012625;28;20203;-72
2023/06/26 08:09:34;;;;;;;5.20;4.70;;;29.50;49.20;;;;;;5013387;28;20235;-72
2023/06/26 08:12:04;;;;;;;5.63;5.13;;;29.70;49.80;;;;;;5012295;28;20227;-72
2023/06/26 08:14:32;;;;;;;6.40;5.40;;;29.80;49.60;;;;;;5009959;28;20199;-70
2023/06/26 08:17:00;;;;;;;5.47;4.70;;;29.90;49.10;;;;;;4994315;28;20241;-71
2023/06/26 08:19:28;;;;;;;5.57;5.07;;;30.10;49.30;;;;;;4993355;28;20223;-70
2023/06/26 08:21:54;;;;;;;10.90;5.30;;;30.20;49.20;;;;;;4994325;28;20234;-72
2023/06/26 08:24:21;;;;;;;5.97;5.37;;;30.20;49.20;;;;;;5013964;28;20191;-71
2023/06/26 08:26:51;;;;;;;5.50;4.97;;;30.30;49.30;;;;;;5013594;28;20560;-71
2023/06/26 08:29:18;;;;;;;6.57;5.30;;;30.40;49.30;;;;;;5013170;28;20239;-72
2023/06/26 08:31:46;;;;;;;7.43;5.37;;;30.50;49.40;;;;;;5011468;28;20211;-72
2023/06/26 08:34:15;;;;;;;5.90;5.30;;;30.60;49.30;;;;;;5010406;28;20360;-73
2023/06/26 08:36:42;;;;;;;9.30;5.30;;;30.60;49.30;;;;;;4994056;28;20310;-70
2023/06/26 08:39:09;;;;;;;6.23;5.63;;;30.60;49.50;;;;;;4993497;28;20231;-71
2023/06/26 08:41:42;;;;;;;6.07;5.50;;;30.60;49.90;;;;;;4994444;28;20227;-70
2023/06/26 08:44:10;;;;;;;6.33;5.73;;;30.60;49.70;;;;;;5010113;28;20199;-73
2023/06/26 08:46:40;;;;;;;8.70;5.90;;;30.50;49.90;;;;;;5013187;28;20233;-70
2023/06/26 08:49:18;;;;;;;6.13;5.53;;;30.40;49.80;;;;;;5013042;28;20207;-74
2023/06/26 08:51:53;;;;;;;7.50;5.70;;;30.30;50.30;;;;;;5010914;28;20206;-72
2023/06/26 08:54:28;;;;;;;6.50;5.40;;;30.40;50.20;;;;;;4993421;28;20233;-70
2023/06/26 08:56:58;;;;;;;6.70;6.00;;;30.30;50.10;;;;;;4993280;28;20211;-73
2023/06/26 08:59:25;;;;;;;6.33;4.77;;;30.30;50.40;;;;;;4993404;28;20214;-70
2023/06/26 09:01:52;;;;;;;8.73;5.43;;;30.20;50.20;;;;;;4994696;28;20222;-71
2023/06/26 09:04:22;;;;;;;5.77;5.27;;;30.20;50.50;;;;;;5011644;28;20653;-73
2023/06/26 09:06:49;;;;;;;6.33;5.73;;;30.30;50.60;;;;;;5012377;28;20301;-71
2023/06/26 09:09:16;;;;;;;6.83;6.13;;;30.30;50.60;;;;;;5012569;28;20656;-73
2023/06/26 09:11:43;;;;;;;9.63;5.90;;;30.40;50.40;;;;;;5007008;28;20195;-72
2023/06/26 09:14:10;;;;;;;7.50;5.10;;;30.40;50.50;;;;;;4993443;28;20250;-73
2023/06/26 09:16:48;;;;;;;6.33;5.23;;;30.50;50.70;;;;;;4993027;28;20266;-71
2023/06/26 09:19:15;;;;;;;5.73;5.20;;;30.50;50.30;;;;;;4992722;28;20231;-71
2023/06/26 09:21:44;;;;;;;6.37;5.77;;;30.60;50.50;;;;;;4993847;28;20330;-72
2023/06/26 09:24:11;;;;;;;5.90;5.40;;;30.70;50.30;;;;;;4992693;28;20215;-71
2023/06/26 09:26:39;;;;;;;7.33;5.47;;;30.50;50.30;;;;;;4992413;28;20238;-72
2023/06/26 09:29:06;;;;;;;6.30;5.37;;;30.50;50.40;;;;;;4992764;28;20203;-71
2023/06/26 09:31:36;;;;;;;6.60;5.90;;;30.60;50.70;;;;;;4992090;28;20202;-71
2023/06/26 09:34:03;;;;;;;6.17;5.57;;;30.60;50.50;;;;;;4992852;28;20303;-72
2023/06/26 09:36:32;;;;;;;5.93;5.30;;;30.80;50.40;;;;;;4992487;28;20331;-71
2023/06/26 09:39:04;;;;;;;6.27;5.70;;;30.80;50.20;;;;;;4992741;28;20254;-70
2023/06/26 09:41:31;;;;;;;7.77;5.80;;;30.90;50.40;;;;;;4992178;28;20605;-73
2023/06/26 09:44:03;;;;;;;6.00;5.40;;;30.90;50.30;;;;;;5012215;28;20659;-72
2023/06/26 09:46:31;;;;;;;5.57;5.07;;;30.80;50.30;;;;;;5011811;28;20199;-70
2023/06/26 09:49:05;;;;;;;6.20;5.60;;;30.70;50.60;;;;;;5011008;28;20209;-71
2023/06/26 09:51:33;;;;;;;5.50;5.00;;;30.70;50.70;;;;;;5010552;28;20314;-71
2023/06/26 09:54:03;;;;;;;6.03;5.43;;;30.80;50.90;;;;;;5011848;28;20535;-70
2023/06/26 09:56:31;;;;;;;6.57;5.77;;;30.80;51.00;;;;;;5011874;28;20211;-71
2023/06/26 09:58:59;;;;;;;7.13;4.87;;;30.70;50.90;;;;;;5011920;28;20245;-70
2023/06/26 10:01:30;;;;;;;5.80;5.30;;;30.60;51.40;;;;;;5010842;28;20210;-71
2023/06/26 10:03:57;;;;;;;6.00;5.50;;;30.80;51.60;;;;;;5010193;28;20222;-71
2023/06/26 10:06:34;;;;;;;5.33;4.83;;;31.00;51.60;;;;;;4999228;28;20210;-71
2023/06/26 10:09:05;;;;;;;6.63;6.03;;;31.10;51.10;;;;;;4993301;28;20196;-70
2023/06/26 10:11:39;;;;;;;6.17;5.57;;;31.20;51.40;;;;;;4993449;28;20211;-70
2023/06/26 10:14:10;;;;;;;6.97;4.97;;;31.30;50.80;;;;;;5012025;28;20199;-70
2023/06/26 10:16:40;;;;;;;6.37;5.77;;;31.40;51.30;;;;;;5011487;28;20235;-73
2023/06/26 10:19:11;;;;;;;5.97;5.10;;;31.40;50.80;;;;;;5011559;28;20256;-70
2023/06/26 10:21:41;;;;;;;6.10;4.97;;;31.40;50.60;;;;;;5010404;28;20227;-70
2023/06/26 10:24:15;;;;;;;5.83;5.33;;;31.50;50.50;;;;;;5009943;28;20262;-71
2023/06/26 10:26:45;;;;;;;6.23;4.90;;;31.50;50.50;;;;;;5011912;28;20289;-72
2023/06/26 10:29:21;;;;;;;5.60;5.00;;;31.60;50.70;;;;;;5011595;28;20262;-71
2023/06/26 10:31:53;;;;;;;5.60;5.03;;;31.80;50.40;;;;;;5011611;28;20565;-72
2023/06/26 10:34:21;;;;;;;6.33;5.53;;;31.90;50.30;;;;;;5001793;28;20645;-71
2023/06/26 10:36:59;;;;;;;5.70;5.10;;;31.90;49.30;;;;;;4991670;28;20240;-70
2023/06/26 10:39:28;;;;;;;6.30;5.80;;;31.80;49.70;;;;;;4991765;28;20224;-72
2023/06/26 10:41:56;;;;;;;7.17;6.03;;;31.80;50.20;;;;;;4993621;28;20239;-73
2023/06/26 10:44:24;;;;;;;6.50;5.27;;;31.90;49.90;;;;;;5000156;28;20830;-70
2023/06/26 10:46:54;;;;;;;6.77;5.53;;;31.90;49.40;;;;;;5007810;28;20661;-70
2023/06/26 10:49:30;;;;;;;6.60;5.40;;;32.00;49.40;;;;;;5012062;28;20235;-71
2023/06/26 10:52:03;;;;;;;6.53;5.50;;;32.10;49.40;;;;;;5010334;28;20215;-70
2023/06/26 10:54:33;;;;;;;7.40;5.60;;;32.20;49.80;;;;;;4994566;28;20229;-70
2023/06/26 10:57:04;;;;;;;5.30;4.80;;;32.40;49.10;;;;;;4998623;28;20735;-71
2023/06/26 10:59:32;;;;;;;5.87;5.30;;;32.40;48.90;;;;;;5014354;28;20214;-71
2023/06/26 11:02:06;;;;;;;5.53;5.03;;;32.40;48.40;;;;;;5017134;28;20332;-70
2023/06/26 11:04:41;;;;;;;7.20;5.23;;;32.40;47.90;;;;;;5001199;28;20216;-70
2023/06/26 11:07:22;;;;;;;4.93;4.53;;;32.20;48.10;;;;;;4997686;28;20335;-69
2023/06/26 11:09:59;;;;;;;7.20;5.87;;;32.30;48.50;;;;;;4998681;28;20190;-71
2023/06/26 11:12:36;;;;;;;6.90;5.73;;;32.30;48.50;;;;;;4997984;28;20262;-70
2023/06/26 11:15:03;;;;;;;6.20;5.43;;;32.40;48.20;;;;;;5017326;28;20204;-70
2023/06/26 11:17:34;;;;;;;6.53;5.23;;;32.40;47.50;;;;;;5014849;28;20237;-73
2023/06/26 11:20:01;;;;;;;7.27;5.20;;;32.40;47.60;;;;;;5014987;28;20254;-71
2023/06/26 11:22:33;;;;;;;6.47;5.70;;;32.60;47.40;;;;;;5014455;28;20741;-70
2023/06/26 11:25:02;;;;;;;5.60;5.10;;;32.60;47.00;;;;;;4995529;28;20195;-72
2023/06/26 11:27:33;;;;;;;5.60;5.10;;;32.70;46.70;;;;;;4994508;28;20229;-71
2023/06/26 11:30:00;;;;;;;5.33;4.83;;;32.80;46.30;;;;;;4997335;28;20205;-69
2023/06/26 11:32:34;;;;;;;8.10;5.40;;;32.90;46.50;;;;;;4995792;28;20262;-71
2023/06/26 11:35:01;;;;;;;6.37;4.70;;;32.90;46.50;;;;;;4988352;28;20569;-72
2023/06/26 11:37:28;;;;;;;6.13;5.50;;;32.70;46.30;;;;;;4994749;28;20229;-71
2023/06/26 11:39:54;;;;;;;5.83;5.10;;;32.70;46.10;;;;;;4995051;28;20316;-70
2023/06/26 11:42:24;;;;;;;6.40;5.80;;;32.70;46.10;;;;;;4995000;28;20569;-71
2023/06/26 11:44:53;;;;;;;7.73;5.60;;;32.90;45.30;;;;;;5006443;28;20225;-70
2023/06/26 11:47:22;;;;;;;5.07;4.67;;;32.80;44.90;;;;;;4994687;28;20256;-71
2023/06/26 11:49:55;;;;;;;6.10;4.83;;;32.90;45.00;;;;;;4994622;28;20214;-71
2023/06/26 11:52:21;;;;;;;5.07;4.67;;;32.80;45.60;;;;;;4994449;28;20995;-72
2023/06/26 11:54:52;;;;;;;5.57;4.60;;;32.90;45.40;;;;;;5010624;28;20212;-73
2023/06/26 11:57:20;;;;;;;6.33;4.80;;;33.00;45.10;;;;;;5019411;28;20213;-73
2023/06/26 11:59:52;;;;;;;6.67;5.27;;;33.00;45.20;;;;;;4988084;28;20221;-72
2023/06/26 12:02:19;;;;;;;5.53;4.63;;;33.10;44.10;;;;;;5023482;28;20194;-71
2023/06/26 12:04:46;;;;;;;5.33;4.87;;;32.90;44.00;;;;;;5018171;28;20231;-72
2023/06/26 12:07:14;;;;;;;5.40;4.80;;;32.90;44.60;;;;;;4995911;28;20211;-71
2023/06/26 12:09:50;;;;;;;5.00;4.50;;;32.80;43.70;;;;;;4998162;28;20211;-71
2023/06/26 12:12:19;;;;;;;5.60;4.17;;;32.70;43.30;;;;;;4994944;28;20226;-70
2023/06/26 12:14:46;;;;;;;5.73;4.53;;;32.70;44.00;;;;;;5008647;28;20297;-71
2023/06/26 12:17:15;;;;;;;5.13;4.63;;;32.70;43.30;;;;;;5013407;28;20324;-71
2023/06/26 12:19:47;;;;;;;4.57;4.17;;;32.90;43.40;;;;;;5013381;28;20303;-71
2023/06/26 12:22:14;;;;;;;4.50;4.07;;;32.90;43.10;;;;;;5013371;28;20274;-70
2023/06/26 12:24:48;;;;;;;5.70;4.17;;;33.00;42.80;;;;;;5006000;28;20615;-70
2023/06/26 12:27:23;;;;;;;4.00;3.47;;;33.00;41.80;;;;;;4993639;28;20194;-71
2023/06/26 12:29:52;;;;;;;3.97;3.53;;;32.70;41.80;;;;;;4993565;28;20716;-70
2023/06/26 12:32:25;;;;;;;3.93;3.50;;;32.70;41.80;;;;;;4993465;28;20209;-70
2023/06/26 12:34:58;;;;;;;3.83;3.30;;;32.70;42.40;;;;;;4995209;28;20206;-71
2023/06/26 12:37:25;;;;;;;3.70;3.30;;;32.80;41.50;;;;;;4993526;28;20679;-71
2023/06/26 12:39:59;;;;;;;3.93;3.43;;;32.90;41.50;;;;;;4999249;28;20207;-72
2023/06/26 12:42:28;;;;;;;3.67;3.30;;;32.90;41.50;;;;;;5014116;28;20241;-70
2023/06/26 12:44:56;;;;;;;4.77;3.03;;;33.10;41.30;;;;;;5013504;28;20292;-73
2023/06/26 12:47:31;;;;;;;4.67;3.80;;;33.10;41.20;;;;;;4978072;28;20222;-72
2023/06/26 12:49:58;;;;;;;6.50;3.63;;;33.10;40.40;;;;;;5004070;28;20752;-70
2023/06/26 12:52:25;;;;;;;3.40;3.10;;;33.10;40.60;;;;;;4993648;28;20214;-72
2023/06/26 12:54:56;;;;;;;4.00;3.60;;;33.20;40.50;;;;;;4993134;28;20692;-70
2023/06/26 12:57:23;;;;;;;4.77;3.03;;;33.30;40.20;;;;;;4993232;28;20269;-71